Time;durP1;ratioP1;P1;durP2;ratioP2;P2;SDS_P1;SDS_P2;PMS_P1;PMS_P2;Temp;Humidity;BMP_temperature;BMP_pressure;BME280_temperature;BME280_humidity;BME280_pressure;Samples;Min_cycle;Max_cycle;Signal;HPM_P1;HPM_P2
2021/12/23 00:02:15;;;;;;;25.25;16.25;;;;;;;-2.40;88.34;101736.41;5031334;28;20033;-78
2021/12/23 00:04:41;;;;;;;30.88;15.55;;;;;;;-2.42;88.28;101717.31;5032647;28;20052;-78
2021/12/23 00:07:06;;;;;;;30.77;17.77;;;;;;;-2.39;88.36;101707.06;5032613;28;20330;-78
2021/12/23 00:10:01;;;;;;;28.70;15.73;;;;;;;-2.42;87.70;101705.22;5031227;28;20080;-78
2021/12/23 00:12:17;;;;;;;25.95;15.82;;;;;;;-2.41;88.27;101686.25;5032175;28;20065;-78
2021/12/23 00:14:45;;;;;;;27.95;15.63;;;;;;;-2.43;87.91;101682.69;5032522;28;20127;-78
2021/12/23 00:17:41;;;;;;;27.13;15.05;;;;;;;-2.44;88.33;101672.25;5032516;28;20500;-78
2021/12/23 00:25:19;;;;;;;26.90;16.63;;;;;;;-2.43;87.65;101676.63;5052242;28;20439;-78
2021/12/23 00:27:45;;;;;;;26.58;16.25;;;;;;;-2.44;87.48;101687.81;5050528;28;20029;-78
2021/12/23 00:30:10;;;;;;;27.10;15.32;;;;;;;-2.42;87.89;101676.69;5050499;28;20033;-78
2021/12/23 00:32:36;;;;;;;29.50;17.00;;;;;;;-2.42;87.85;101652.47;5051451;28;20393;-78
2021/12/23 00:35:06;;;;;;;26.40;16.02;;;;;;;-2.44;87.19;101636.84;5051370;28;20073;-78
2021/12/23 00:37:38;;;;;;;33.97;16.90;;;;;;;-2.42;87.59;101648.16;5051821;28;20063;-78
2021/12/23 00:40:05;;;;;;;30.02;16.33;;;;;;;-2.43;87.49;101641.19;5050481;28;20090;-78
2021/12/23 00:42:32;;;;;;;30.67;16.42;;;;;;;-2.43;87.07;101648.97;5050753;28;20029;-78
2021/12/23 00:44:58;;;;;;;35.50;17.67;;;;;;;-2.43;87.40;101653.28;5050590;28;20037;-78
2021/12/23 00:47:24;;;;;;;32.90;17.50;;;;;;;-2.41;87.30;101652.53;5051813;28;20032;-78
2021/12/23 00:49:49;;;;;;;30.95;15.77;;;;;;;-2.39;87.39;101650.88;5052079;28;20047;-78
2021/12/23 00:52:17;;;;;;;33.08;17.10;;;;;;;-2.38;87.13;101642.28;5051780;28;20066;-78
2021/12/23 00:54:44;;;;;;;25.52;16.30;;;;;;;-2.38;87.55;101631.91;5051951;28;20044;-78
2021/12/23 00:57:09;;;;;;;27.20;17.45;;;;;;;-2.37;87.48;101635.41;5032775;28;20022;-78
2021/12/23 00:59:37;;;;;;;29.50;16.58;;;;;;;-2.39;86.95;101637.91;5032013;28;20041;-78
2021/12/23 01:02:07;;;;;;;29.52;17.02;;;;;;;-2.39;87.29;101650.00;5046977;28;20487;-78
2021/12/23 01:04:33;;;;;;;28.67;17.35;;;;;;;-2.40;86.89;101643.03;5030429;28;20428;-78
2021/12/23 01:06:58;;;;;;;31.20;15.50;;;;;;;-2.38;87.90;101644.88;5030293;28;20060;-78
2021/12/23 01:09:24;;;;;;;30.67;17.52;;;;;;;-2.37;87.26;101648.38;5031477;28;20041;-78
2021/12/23 01:11:50;;;;;;;29.83;17.90;;;;;;;-2.37;87.03;101648.38;5030183;28;20038;-78
2021/12/23 01:17:11;;;;;;;29.45;17.05;;;;;;;-2.36;86.93;101631.97;5046398;28;20055;-78
2021/12/23 01:19:39;;;;;;;26.73;16.83;;;;;;;-2.33;87.82;101631.22;5031231;28;20041;-78
2021/12/23 01:22:08;;;;;;;28.80;16.70;;;;;;;-2.34;87.12;101621.69;5031044;28;20044;-78
2021/12/23 01:24:34;;;;;;;29.23;16.83;;;;;;;-2.32;87.01;101615.72;5031239;28;20422;-78
2021/12/23 01:27:01;;;;;;;31.23;17.70;;;;;;;-2.33;87.02;101608.75;5029543;28;20141;-78
2021/12/23 01:29:26;;;;;;;33.38;17.80;;;;;;;-2.32;86.77;101607.94;5031321;28;20048;-78
2021/12/23 01:31:52;;;;;;;33.05;18.08;;;;;;;-2.30;86.67;101603.72;5030608;28;20045;-78
2021/12/23 01:34:17;;;;;;;29.30;16.10;;;;;;;-2.29;86.62;101602.88;5031139;28;20410;-78
2021/12/23 01:36:43;;;;;;;30.00;16.90;;;;;;;-2.30;86.82;101602.81;5045754;28;20045;-78
2021/12/23 01:39:08;;;;;;;32.95;17.02;;;;;;;-2.28;87.08;101603.75;5029621;28;20044;-78
2021/12/23 01:41:34;;;;;;;30.55;17.50;;;;;;;-2.29;86.98;101592.50;5030745;28;20041;-78
2021/12/23 01:44:00;;;;;;;31.45;18.23;;;;;;;-2.28;86.82;101596.84;5029623;28;20022;-78
2021/12/23 01:46:25;;;;;;;30.75;17.48;;;;;;;-2.26;86.09;101586.56;5029811;28;20087;-78
2021/12/23 01:48:52;;;;;;;30.95;17.83;;;;;;;-2.25;86.65;101585.72;5029351;28;20143;-78
2021/12/23 01:51:18;;;;;;;29.00;17.42;;;;;;;-2.25;86.25;101581.44;5029268;28;20083;-78
2021/12/23 01:53:43;;;;;;;30.27;17.80;;;;;;;-2.23;86.10;101584.97;5029228;28;20042;-78
2021/12/23 01:56:09;;;;;;;28.35;17.23;;;;;;;-2.24;86.52;101587.50;5030491;28;20384;-78
2021/12/23 01:58:37;;;;;;;30.90;17.30;;;;;;;-2.24;86.59;101577.13;5029267;28;20496;-78
2021/12/23 02:01:03;;;;;;;28.63;17.35;;;;;;;-2.26;86.47;101564.09;5029385;28;20052;-78
2021/12/23 02:03:29;;;;;;;29.10;17.13;;;;;;;-2.29;85.94;101551.00;5030980;28;20343;-78
2021/12/23 02:05:54;;;;;;;29.17;16.90;;;;;;;-2.27;86.68;101553.66;5029148;28;20061;-78
2021/12/23 02:08:19;;;;;;;31.70;18.55;;;;;;;-2.25;86.01;101558.09;5030465;28;20042;-78
2021/12/23 02:10:45;;;;;;;29.85;17.63;;;;;;;-2.27;85.76;101556.25;5030633;28;20468;-78
2021/12/23 02:13:11;;;;;;;29.08;17.08;;;;;;;-2.30;86.38;101549.22;5032669;28;20033;-78
2021/12/23 02:15:37;;;;;;;30.98;18.45;;;;;;;-2.29;85.89;101553.59;5038733;28;20043;-78
2021/12/23 02:18:02;;;;;;;30.17;16.27;;;;;;;-2.31;85.98;101550.03;5039595;28;20124;-78
2021/12/23 02:20:31;;;;;;;29.02;16.67;;;;;;;-2.31;85.71;101551.75;5039010;28;20029;-78
2021/12/23 02:22:57;;;;;;;27.42;16.98;;;;;;;-2.35;86.03;101539.47;5022298;28;20025;-78
2021/12/23 02:25:22;;;;;;;29.33;15.52;;;;;;;-2.38;86.24;101542.81;5022940;28;20413;-78
2021/12/23 02:27:49;;;;;;;28.80;17.25;;;;;;;-2.38;86.33;101541.09;5038976;28;20527;-78
2021/12/23 02:30:18;;;;;;;26.85;15.88;;;;;;;-2.38;86.04;101540.22;5039107;28;20527;-78
2021/12/23 02:32:45;;;;;;;28.30;16.55;;;;;;;-2.39;86.16;101548.84;5039057;28;20133;-78
2021/12/23 02:35:14;;;;;;;31.38;16.13;;;;;;;-2.40;86.12;101555.75;5039938;28;20350;-78
2021/12/23 02:37:41;;;;;;;31.00;16.45;;;;;;;-2.42;85.74;101557.38;5038807;28;20061;-78
2021/12/23 02:40:08;;;;;;;28.95;14.98;;;;;;;-2.42;86.05;101567.75;5039134;28;20406;-78
2021/12/23 02:42:34;;;;;;;29.35;16.40;;;;;;;-2.44;85.87;101560.72;5040134;28;20037;-77
2021/12/23 02:45:01;;;;;;;26.30;17.20;;;;;;;-2.46;85.69;101555.47;5039097;28;20026;-77
2021/12/23 02:47:27;;;;;;;20.50;13.65;;;;;;;-2.45;86.27;101564.13;5038604;28;20533;-77
2021/12/23 02:49:52;;;;;;;30.45;17.73;;;;;;;-2.48;85.48;101548.44;5040431;28;20036;-77
2021/12/23 02:52:18;;;;;;;27.88;17.00;;;;;;;-2.53;85.86;101549.97;5039811;28;20049;-77
2021/12/23 02:54:53;;;;;;;29.58;16.98;;;;;;;-2.56;85.89;101537.75;5038723;28;20021;-77
2021/12/23 02:57:18;;;;;;;30.23;16.13;;;;;;;-2.60;85.96;101528.06;5040126;28;20041;-77
2021/12/23 02:59:44;;;;;;;26.15;14.60;;;;;;;-2.62;86.36;101519.34;5041389;28;20223;-77
2021/12/23 03:02:09;;;;;;;27.55;15.48;;;;;;;-2.67;86.11;101516.56;5008370;28;20060;-77
2021/12/23 03:04:34;;;;;;;28.27;16.65;;;;;;;-2.70;86.03;101506.03;5043720;28;20032;-77
2021/12/23 03:07:00;;;;;;;26.70;15.38;;;;;;;-2.73;86.23;101502.44;5042348;28;20052;-77
2021/12/23 03:09:25;;;;;;;28.02;15.70;;;;;;;-2.77;86.72;101508.31;5042500;28;20063;-77
2021/12/23 03:11:51;;;;;;;29.38;16.50;;;;;;;-2.77;86.22;101510.91;5042438;28;20549;-77
2021/12/23 03:14:17;;;;;;;30.35;16.67;;;;;;;-2.82;85.91;101506.41;5042004;28;20120;-77
2021/12/23 03:16:44;;;;;;;26.50;14.63;;;;;;;-2.83;86.06;101503.75;5042195;28;20032;-77
2021/12/23 03:19:09;;;;;;;30.38;16.45;;;;;;;-2.87;86.02;101507.94;5057592;28;20468;-77
2021/12/23 03:21:35;;;;;;;24.65;15.23;;;;;;;-2.90;85.88;101501.72;5043187;28;20021;-77
2021/12/23 03:24:01;;;;;;;30.50;16.02;;;;;;;-2.92;85.96;101493.84;5042469;28;20037;-77
2021/12/23 03:26:27;;;;;;;28.35;15.20;;;;;;;-2.94;86.31;101482.56;5040416;28;20120;-77
2021/12/23 03:28:53;;;;;;;27.83;16.25;;;;;;;-2.97;86.32;101482.41;5043485;28;20195;-77
2021/12/23 03:31:18;;;;;;;28.00;15.82;;;;;;;-2.96;85.74;101480.72;5041622;28;20375;-77
2021/12/23 03:33:44;;;;;;;27.88;15.32;;;;;;;-2.99;86.43;101477.97;5041396;28;20420;-77
2021/12/23 03:36:09;;;;;;;26.00;15.90;;;;;;;-3.04;85.90;101477.81;5042024;28;20377;-77
2021/12/23 03:38:35;;;;;;;31.77;16.30;;;;;;;-3.04;86.27;101480.41;5042643;28;20483;-77
2021/12/23 03:41:02;;;;;;;26.52;15.85;;;;;;;-3.06;86.07;101459.59;5041914;28;20028;-77
2021/12/23 03:43:29;;;;;;;29.05;16.42;;;;;;;-3.09;86.42;101454.28;5041317;28;20511;-77
2021/12/23 03:45:54;;;;;;;26.58;14.65;;;;;;;-3.09;86.49;101433.56;5042808;28;20029;-77
2021/12/23 03:48:20;;;;;;;28.65;16.52;;;;;;;-3.11;87.13;101426.53;5042746;28;20025;-77
2021/12/23 03:50:47;;;;;;;26.98;15.13;;;;;;;-3.10;87.34;101418.81;5040199;28;20045;-77
2021/12/23 03:53:13;;;;;;;29.25;16.50;;;;;;;-3.10;87.16;101397.22;5042738;28;20082;-77
2021/12/23 03:55:39;;;;;;;30.15;17.10;;;;;;;-3.09;87.24;101402.47;5042469;28;20053;-77
2021/12/23 03:58:05;;;;;;;28.65;16.15;;;;;;;-3.07;87.62;101413.75;5047152;28;20025;-77
2021/12/23 04:00:31;;;;;;;32.25;16.98;;;;;;;-3.04;87.77;101406.13;5052926;28;20040;-77
2021/12/23 04:02:57;;;;;;;24.95;15.30;;;;;;;-3.00;87.74;101414.03;5052826;28;20492;-77
2021/12/23 04:05:23;;;;;;;34.35;17.08;;;;;;;-2.98;87.57;101418.47;5051272;28;20125;-77
2021/12/23 04:07:49;;;;;;;29.05;15.80;;;;;;;-2.95;87.47;101403.03;5050645;28;20080;-77
2021/12/23 04:10:17;;;;;;;28.60;17.25;;;;;;;-2.95;87.58;101394.38;5050283;28;20060;-77
2021/12/23 04:12:43;;;;;;;27.40;16.45;;;;;;;-2.91;87.63;101407.53;5052164;28;20025;-77
2021/12/23 04:15:10;;;;;;;28.77;15.93;;;;;;;-2.89;87.79;101415.38;5052573;28;20041;-77
2021/12/23 04:17:35;;;;;;;35.55;19.75;;;;;;;-2.88;88.11;101407.66;5052363;28;20338;-77
2021/12/23 04:20:15;;;;;;;31.33;17.50;;;;;;;-2.83;87.90;101426.00;5047488;28;20041;-77
2021/12/23 04:22:44;;;;;;;28.67;16.35;;;;;;;-2.77;87.85;101414.97;5032092;28;20440;-77
2021/12/23 04:25:11;;;;;;;38.75;18.75;;;;;;;-2.79;88.02;101391.63;5015116;28;20112;-77
2021/12/23 04:27:37;;;;;;;31.90;18.35;;;;;;;-2.76;87.85;101399.50;5014282;28;20060;-76
2021/12/23 04:30:07;;;;;;;31.48;18.23;;;;;;;-2.74;87.83;101395.28;5030782;28;20025;-77
2021/12/23 04:32:32;;;;;;;33.45;19.42;;;;;;;-2.69;87.26;101391.16;5030172;28;20145;-77
2021/12/23 04:34:58;;;;;;;35.35;20.02;;;;;;;-2.65;87.37;101399.94;5038619;28;20115;-77
2021/12/23 04:37:23;;;;;;;32.33;18.90;;;;;;;-2.64;87.34;101383.56;5042616;28;20397;-77
2021/12/23 04:39:49;;;;;;;33.33;19.65;;;;;;;-2.63;87.52;101373.25;5040694;28;20021;-77
2021/12/23 04:42:14;;;;;;;36.58;21.13;;;;;;;-2.60;87.63;101385.44;5040450;28;20021;-77
2021/12/23 04:44:40;;;;;;;34.88;20.17;;;;;;;-2.60;87.51;101368.19;5042127;28;20472;-77
2021/12/23 04:47:05;;;;;;;35.78;20.10;;;;;;;-2.59;87.48;101366.50;5038937;28;20413;-77
2021/12/23 04:49:31;;;;;;;35.03;19.67;;;;;;;-2.52;87.62;101357.22;5040720;28;20025;-77
2021/12/23 04:51:56;;;;;;;31.52;19.17;;;;;;;-2.50;87.30;101372.03;5041545;28;20060;-77
2021/12/23 04:54:22;;;;;;;35.80;21.17;;;;;;;-2.47;87.50;101358.31;5039200;28;20052;-77
2021/12/23 04:56:47;;;;;;;33.83;20.15;;;;;;;-2.45;87.44;101361.81;5038415;28;20060;-77
2021/12/23 04:59:13;;;;;;;40.20;21.45;;;;;;;-2.41;87.12;101361.13;5023875;28;20127;-77
2021/12/23 05:01:38;;;;;;;40.28;21.02;;;;;;;-2.40;87.25;101348.25;5040096;28;20095;-77
2021/12/23 05:04:04;;;;;;;31.77;15.98;;;;;;;-2.33;86.73;101346.75;5032718;28;20163;-77
2021/12/23 05:06:30;;;;;;;33.65;20.55;;;;;;;-2.35;87.32;101340.59;5040284;28;20026;-77
2021/12/23 05:08:55;;;;;;;37.53;20.73;;;;;;;-2.33;87.09;101338.97;5023545;28;20037;-77
2021/12/23 05:11:21;;;;;;;37.08;20.23;;;;;;;-2.33;87.20;101331.19;5040359;28;20025;-77
2021/12/23 05:13:47;;;;;;;38.72;21.20;;;;;;;-2.30;86.79;101344.28;5038743;28;20088;-77
2021/12/23 05:16:19;;;;;;;36.97;19.85;;;;;;;-2.29;87.13;101342.56;5041382;28;20036;-77
2021/12/23 05:18:45;;;;;;;42.30;22.00;;;;;;;-2.31;86.99;101339.91;5040576;28;20040;-77
2021/12/23 05:21:10;;;;;;;37.63;20.63;;;;;;;-2.30;87.17;101338.19;5039795;28;20022;-77
2021/12/23 05:23:36;;;;;;;39.08;21.55;;;;;;;-2.25;86.94;101341.84;5039320;28;20508;-77
2021/12/23 05:26:05;;;;;;;41.22;21.55;;;;;;;-2.26;86.71;101337.50;5040332;28;20109;-77
2021/12/23 05:28:31;;;;;;;41.83;21.30;;;;;;;-2.24;86.90;101335.84;5039799;28;20401;-77
2021/12/23 05:30:56;;;;;;;36.78;19.98;;;;;;;-2.22;87.10;101332.47;5040715;28;20033;-77
2021/12/23 05:33:22;;;;;;;44.40;23.38;;;;;;;-2.21;86.92;101339.44;5039561;28;20428;-77
2021/12/23 05:35:47;;;;;;;39.42;20.00;;;;;;;-2.22;86.70;101342.88;5038271;28;20491;-77
2021/12/23 05:38:13;;;;;;;39.95;21.35;;;;;;;-2.21;86.66;101320.38;5040894;28;20342;-77
2021/12/23 05:40:38;;;;;;;45.78;22.00;;;;;;;-2.18;86.60;101320.50;5024302;28;20044;-77
2021/12/23 05:43:04;;;;;;;42.15;22.38;;;;;;;-2.20;86.15;101329.94;5039501;28;20021;-77
2021/12/23 05:45:29;;;;;;;38.90;22.23;;;;;;;-2.21;86.71;101317.78;5031885;28;20167;-77
2021/12/23 05:47:56;;;;;;;39.28;20.90;;;;;;;-2.19;87.02;101308.38;5038932;28;20025;-77
2021/12/23 05:50:25;;;;;;;39.13;21.63;;;;;;;-2.19;86.41;101316.16;5050882;28;20033;-77
2021/12/23 05:52:52;;;;;;;47.75;22.70;;;;;;;-2.20;86.86;101307.50;5049234;28;20025;-77
2021/12/23 05:55:19;;;;;;;40.65;21.95;;;;;;;-2.22;86.88;101306.53;5048486;28;20119;-77
2021/12/23 05:57:45;;;;;;;41.60;23.20;;;;;;;-2.22;86.75;101309.13;5030531;28;20026;-77
2021/12/23 06:00:15;;;;;;;40.22;22.52;;;;;;;-2.22;86.63;101318.63;5030662;28;20088;-77
2021/12/23 06:02:41;;;;;;;39.30;22.80;;;;;;;-2.21;86.21;101316.09;5030534;28;20049;-77
2021/12/23 06:05:07;;;;;;;40.38;22.73;;;;;;;-2.24;86.95;101310.78;5030745;28;20118;-77
2021/12/23 06:07:33;;;;;;;42.80;21.58;;;;;;;-2.25;86.51;101311.63;5029054;28;20052;-77
2021/12/23 06:09:59;;;;;;;38.17;21.65;;;;;;;-2.22;86.82;101308.25;5030674;28;20025;-77
2021/12/23 06:12:24;;;;;;;42.80;22.13;;;;;;;-2.23;86.65;101320.31;5030398;28;20061;-78
2021/12/23 06:14:50;;;;;;;39.22;21.38;;;;;;;-2.24;87.23;101310.78;5030777;28;20028;-78
2021/12/23 06:17:15;;;;;;;38.38;20.42;;;;;;;-2.22;87.05;101303.06;5030621;28;20124;-78
2021/12/23 06:19:41;;;;;;;38.55;21.55;;;;;;;-2.21;86.69;101305.69;5029215;28;20033;-77
2021/12/23 06:22:06;;;;;;;37.45;21.33;;;;;;;-2.23;86.77;101296.09;5012950;28;20033;-77
2021/12/23 06:24:32;;;;;;;43.20;23.05;;;;;;;-2.23;86.85;101283.13;4996982;28;20029;-77
2021/12/23 06:26:58;;;;;;;44.25;23.23;;;;;;;-2.24;87.09;101278.78;5030891;28;20204;-77
2021/12/23 06:29:23;;;;;;;43.08;23.75;;;;;;;-2.24;87.65;101274.47;5029544;28;20025;-77
2021/12/23 06:31:49;;;;;;;45.22;25.08;;;;;;;-2.24;87.14;101271.00;5030829;28;20439;-77
2021/12/23 06:34:14;;;;;;;39.80;22.05;;;;;;;-2.25;87.55;101267.53;5032542;28;20085;-77
2021/12/23 06:36:43;;;;;;;42.20;22.00;;;;;;;-2.25;87.82;101271.81;5034581;28;20041;-77
2021/12/23 06:39:08;;;;;;;44.00;23.52;;;;;;;-2.25;87.18;101272.72;5033122;28;20421;-77
2021/12/23 06:41:34;;;;;;;44.80;22.88;;;;;;;-2.26;87.59;101257.06;5016713;28;20140;-77
2021/12/23 06:43:59;;;;;;;47.08;24.00;;;;;;;-2.25;87.70;101264.00;5034608;28;20116;-77
2021/12/23 06:46:25;;;;;;;48.35;25.13;;;;;;;-2.26;87.18;101242.38;5032948;28;20361;-77
2021/12/23 06:48:50;;;;;;;38.40;21.65;;;;;;;-2.24;88.19;101242.44;5033141;28;20152;-77
2021/12/23 06:51:16;;;;;;;46.65;24.58;;;;;;;-2.22;88.02;101238.22;5032811;28;20057;-77
2021/12/23 06:53:42;;;;;;;44.88;24.08;;;;;;;-2.21;87.91;101237.38;5034277;28;20049;-77
2021/12/23 06:56:07;;;;;;;47.85;23.98;;;;;;;-2.20;87.75;101237.44;5033703;28;20053;-77
2021/12/23 06:58:34;;;;;;;49.45;26.02;;;;;;;-2.17;87.76;101254.81;5033006;28;20029;-77
2021/12/23 07:01:00;;;;;;;45.50;23.08;;;;;;;-2.14;87.61;101251.47;5034143;28;20346;-77
2021/12/23 07:03:40;;;;;;;39.90;22.52;;;;;;;-2.11;87.77;101268.00;5032885;28;20042;-77
2021/12/23 07:06:07;;;;;;;45.75;24.02;;;;;;;-2.09;87.65;101266.34;5034030;28;20054;-77
2021/12/23 07:08:35;;;;;;;42.65;22.48;;;;;;;-2.07;87.43;101269.03;5033809;28;20033;-77
2021/12/23 07:11:00;;;;;;;50.75;26.73;;;;;;;-2.04;87.56;101272.59;5033865;28;20045;-77
2021/12/23 07:13:26;;;;;;;44.85;23.30;;;;;;;-2.02;87.50;101262.28;5032488;28;20041;-77
2021/12/23 07:15:52;;;;;;;51.25;25.58;;;;;;;-1.99;87.31;101260.66;5032522;28;20041;-77
2021/12/23 07:18:17;;;;;;;44.13;22.58;;;;;;;-2.00;87.28;101266.69;5032263;28;20102;-77
2021/12/23 07:20:43;;;;;;;50.53;25.67;;;;;;;-1.99;87.53;101246.81;5033631;28;20400;-77
2021/12/23 07:23:08;;;;;;;42.22;22.52;;;;;;;-1.94;87.28;101253.03;5015784;28;20025;-77
2021/12/23 07:25:35;;;;;;;45.88;25.20;;;;;;;-1.96;87.22;101263.34;5033723;28;20049;-77
2021/12/23 07:28:01;;;;;;;42.17;24.27;;;;;;;-1.93;87.53;101264.31;5033645;28;20041;-77
2021/12/23 07:30:26;;;;;;;40.30;21.98;;;;;;;-1.92;87.53;101277.34;5033875;28;20079;-77
2021/12/23 07:32:53;;;;;;;43.08;23.15;;;;;;;-1.92;87.49;101264.38;5032035;28;20448;-77
2021/12/23 07:35:19;;;;;;;42.90;23.73;;;;;;;-1.89;87.54;101259.28;5032344;28;20396;-77
2021/12/23 07:37:46;;;;;;;45.22;23.45;;;;;;;-1.87;87.33;101254.16;5033196;28;20037;-77
2021/12/23 07:40:14;;;;;;;45.35;22.95;;;;;;;-1.84;87.50;101254.25;5033474;28;20108;-79
2021/12/23 07:42:51;;;;;;;44.78;24.25;;;;;;;-1.83;87.20;101259.50;5031906;28;20040;-79
2021/12/23 07:45:17;;;;;;;48.55;23.20;;;;;;;-1.78;87.34;101277.81;5031883;28;20029;-79
2021/12/23 07:47:42;;;;;;;42.42;22.52;;;;;;;-1.78;86.71;101275.22;5033283;28;20465;-79
2021/12/23 07:50:08;;;;;;;44.75;24.42;;;;;;;-1.78;86.85;101270.94;5031966;28;20033;-79
2021/12/23 07:52:34;;;;;;;44.53;22.42;;;;;;;-1.75;86.80;101254.59;5031618;28;20099;-79
2021/12/23 07:54:59;;;;;;;46.50;23.92;;;;;;;-1.73;86.92;101251.22;5033099;28;20432;-79
2021/12/23 07:57:25;;;;;;;50.10;24.02;;;;;;;-1.71;87.44;101245.16;5052047;28;20468;-84
2021/12/23 07:59:50;;;;;;;45.85;23.90;;;;;;;-1.72;87.68;101246.88;5035219;28;20382;-84
2021/12/23 08:02:15;;;;;;;41.85;23.23;;;;;;;-1.73;87.62;101243.41;5051997;28;20461;-85
2021/12/23 08:04:41;;;;;;;41.97;23.77;;;;;;;-1.70;87.47;101247.84;5034945;28;20041;-84
2021/12/23 08:07:06;;;;;;;42.60;24.35;;;;;;;-1.68;87.35;101240.06;5018285;28;20072;-85
2021/12/23 08:09:32;;;;;;;46.97;23.08;;;;;;;-1.67;87.81;101242.75;5001784;28;20029;-85
2021/12/23 08:12:00;;;;;;;41.85;22.40;;;;;;;-1.64;87.54;101242.84;5034113;28;20199;-84
2021/12/23 08:14:26;;;;;;;47.08;22.85;;;;;;;-1.62;87.69;101246.38;5050941;28;20029;-85
2021/12/23 08:16:51;;;;;;;43.03;23.85;;;;;;;-1.62;87.73;101250.69;5034168;28;20052;-85
2021/12/23 08:19:17;;;;;;;45.80;23.75;;;;;;;-1.61;87.46;101249.84;5017568;28;20118;-84
2021/12/23 08:21:43;;;;;;;39.25;19.83;;;;;;;-1.57;87.94;101251.72;5033954;28;20112;-84
2021/12/23 08:24:08;;;;;;;46.33;23.40;;;;;;;-1.57;87.95;101250.00;5051808;28;20017;-85
2021/12/23 08:26:40;;;;;;;46.05;23.75;;;;;;;-1.54;87.59;101247.50;5037839;28;20124;-85
2021/12/23 08:29:07;;;;;;;46.63;23.08;;;;;;;-1.51;87.35;101231.13;5050008;28;20076;-84
2021/12/23 08:31:33;;;;;;;41.47;21.95;;;;;;;-1.49;87.87;101229.47;5043230;28;20060;-85
2021/12/23 08:33:59;;;;;;;43.40;22.50;;;;;;;-1.45;87.73;101227.88;4991922;28;20042;-85
2021/12/23 08:36:25;;;;;;;47.50;23.55;;;;;;;-1.42;88.08;101227.97;5023708;28;20041;-85
2021/12/23 08:38:51;;;;;;;44.65;23.38;;;;;;;-1.40;87.57;101222.00;5031086;28;20030;-85
2021/12/23 08:41:17;;;;;;;41.58;22.13;;;;;;;-1.39;88.06;101221.16;5033429;28;20064;-85
2021/12/23 08:43:44;;;;;;;45.63;23.52;;;;;;;-1.35;87.63;101214.38;5037126;28;20061;-85
2021/12/23 08:46:11;;;;;;;42.40;20.38;;;;;;;-1.31;87.94;101213.63;5017469;28;20124;-85
2021/12/23 08:48:37;;;;;;;45.10;23.80;;;;;;;-1.30;87.74;101199.81;5033864;28;20032;-86
2021/12/23 08:51:03;;;;;;;43.58;23.00;;;;;;;-1.26;87.62;101195.56;5037000;28;20178;-85
2021/12/23 08:53:28;;;;;;;41.55;22.45;;;;;;;-1.25;88.06;101186.97;5013294;28;20037;-85
2021/12/23 08:55:54;;;;;;;44.53;22.73;;;;;;;-1.23;87.89;101185.28;5020270;28;20071;-85
2021/12/23 08:58:20;;;;;;;47.00;24.50;;;;;;;-1.22;87.47;101184.44;5030434;28;20049;-85
2021/12/23 09:00:45;;;;;;;44.97;22.80;;;;;;;-1.22;87.37;101187.94;5053117;28;20044;-86
2021/12/23 09:03:11;;;;;;;42.47;21.95;;;;;;;-1.16;86.97;101187.25;5029797;28;20469;-86
2021/12/23 09:05:38;;;;;;;45.17;22.20;;;;;;;-1.16;87.54;101189.84;5038635;28;20028;-86
2021/12/23 09:08:05;;;;;;;44.83;23.20;;;;;;;-1.11;87.87;101193.47;5030431;28;20432;-86
2021/12/23 09:10:32;;;;;;;42.55;23.40;;;;;;;-1.09;87.44;101187.50;5014394;28;20034;-86
2021/12/23 09:12:58;;;;;;;43.17;20.92;;;;;;;-1.02;87.56;101188.53;5034682;28;20392;-86
2021/12/23 09:15:24;;;;;;;42.78;22.83;;;;;;;-0.98;87.39;101182.63;5034009;28;20135;-85
2021/12/23 09:17:50;;;;;;;39.25;21.83;;;;;;;-0.95;87.84;101176.63;5049213;28;20087;-86
2021/12/23 09:20:18;;;;;;;44.08;22.27;;;;;;;-0.95;87.54;101174.03;5033252;28;20025;-86
2021/12/23 09:22:45;;;;;;;44.67;23.05;;;;;;;-0.91;87.14;101176.78;5048484;28;20086;-86
2021/12/23 09:25:19;;;;;;;43.72;22.75;;;;;;;-0.87;87.08;101183.84;5037124;28;20081;-85
2021/12/23 09:27:59;;;;;;;46.40;23.35;;;;;;;-0.84;86.96;101176.94;5030622;28;20121;-86
2021/12/23 09:33:10;;;;;;;42.13;21.80;;;;;;;-0.80;87.06;101164.06;5030904;28;20037;-86
2021/12/23 09:35:38;;;;;;;48.20;22.38;;;;;;;-0.74;86.95;101174.69;5017832;28;20452;-86
2021/12/23 09:38:04;;;;;;;45.00;23.58;;;;;;;-0.71;86.95;101168.69;5024496;28;20541;-86
2021/12/23 09:40:32;;;;;;;43.67;22.67;;;;;;;-0.70;86.70;101160.03;5023427;28;20116;-85
2021/12/23 09:43:06;;;;;;;43.95;22.30;;;;;;;-0.65;87.01;101159.31;5030117;28;20030;-86
2021/12/23 09:45:33;;;;;;;44.10;21.23;;;;;;;-0.63;86.88;101148.97;5043586;28;20384;-86
2021/12/23 09:48:01;;;;;;;43.67;23.02;;;;;;;-0.61;86.67;101147.28;5033865;28;20493;-87
2021/12/23 09:50:32;;;;;;;46.75;22.65;;;;;;;-0.57;87.36;101138.75;5032332;28;20445;-86
2021/12/23 09:53:01;;;;;;;47.47;23.73;;;;;;;-0.53;87.04;101139.72;5032145;28;20033;-87
2021/12/23 09:55:28;;;;;;;44.05;22.85;;;;;;;-0.50;86.87;101135.44;5047963;28;20376;-87
2021/12/23 09:57:56;;;;;;;44.78;23.13;;;;;;;-0.51;86.79;101138.03;5012668;28;20084;-87
2021/12/23 10:00:24;;;;;;;43.38;21.92;;;;;;;-0.49;86.62;101128.56;5029244;28;20091;-87
2021/12/23 10:02:51;;;;;;;37.50;20.90;;;;;;;-0.48;86.80;101125.97;5028706;28;20056;-86
2021/12/23 10:05:22;;;;;;;43.78;22.70;;;;;;;-0.45;86.61;101126.06;5012876;28;20030;-87
2021/12/23 10:07:49;;;;;;;43.20;22.58;;;;;;;-0.43;86.46;101126.09;5011709;28;20056;-87
2021/12/23 10:10:56;;;;;;;46.63;23.05;;;;;;;-0.41;87.36;101124.44;5029164;28;20166;-86
2021/12/23 10:38:10;;;;;;;42.47;22.77;;;;;;;-0.06;86.53;101052.47;5048568;28;20037;-88
2021/12/23 10:40:41;;;;;;;44.38;22.83;;;;;;;0.01;86.42;101053.50;5048886;28;20565;-88
2021/12/23 10:43:10;;;;;;;41.75;21.70;;;;;;;0.02;86.34;101049.19;5048619;28;20087;-88
2021/12/23 10:45:52;;;;;;;46.60;24.10;;;;;;;0.06;86.22;101038.88;5048931;28;20038;-88
2021/12/23 10:48:18;;;;;;;48.88;24.23;;;;;;;0.09;86.48;101045.88;5048480;28;20460;-89
2021/12/23 10:50:48;;;;;;;48.22;24.50;;;;;;;0.17;85.56;101050.44;5049021;28;20028;-88
2021/12/23 10:53:37;;;;;;;55.30;25.70;;;;;;;0.19;86.84;101038.31;5032292;28;20041;-89
2021/12/23 10:59:16;;;;;;;45.72;22.15;;;;;;;0.30;86.23;101025.56;5028807;28;20049;-88
2021/12/23 11:02:16;;;;;;;54.95;24.58;;;;;;;0.35;86.11;101023.06;5012475;28;20408;-88
2021/12/23 11:36:02;;;;;;;38.33;20.33;;;;;;;0.96;85.99;100966.09;5052258;28;20048;-90
2021/12/23 11:38:59;;;;;;;41.67;20.92;;;;;;;1.06;84.90;100957.59;5052080;28;20036;-89
2021/12/23 11:44:00;;;;;;;44.20;22.25;;;;;;;1.27;85.02;100962.34;5052321;28;20441;-89
2021/12/23 11:46:43;;;;;;;44.28;20.23;;;;;;;1.33;85.16;100959.84;5052318;28;20029;-90
2021/12/23 11:49:11;;;;;;;40.13;20.05;;;;;;;1.42;84.26;100952.16;5035605;28;20101;-89
2021/12/23 11:54:11;;;;;;;46.17;22.23;;;;;;;1.52;84.29;100934.06;5051952;28;20048;-89
2021/12/23 11:56:42;;;;;;;39.30;21.02;;;;;;;1.58;84.32;100916.75;5036165;28;20021;-89
2021/12/23 11:59:14;;;;;;;39.05;20.08;;;;;;;1.72;84.50;100916.97;5035466;28;20396;-90
2021/12/23 12:01:41;;;;;;;;;;;;;;;1.82;84.72;100920.63;5052482;28;20072;-90
2021/12/23 12:04:09;;;;;;;40.53;20.42;;;;;;;1.89;83.51;100909.41;5035469;28;19916;-90
2021/12/23 12:06:38;;;;;;;34.13;18.85;;;;;;;1.97;83.68;100905.16;5051855;28;20028;-89
2021/12/23 12:09:10;;;;;;;39.60;20.15;;;;;;;2.05;82.96;100898.34;5035277;28;20028;-91
2021/12/23 12:11:36;;;;;;;40.83;20.92;;;;;;;2.10;82.72;100890.53;5051764;28;20492;-91
2021/12/23 12:14:03;;;;;;;39.65;23.02;;;;;;;2.17;82.24;100887.16;5018670;28;20135;-91
2021/12/23 12:16:32;;;;;;;36.38;18.35;;;;;;;2.11;82.72;100885.34;5035026;28;20033;-91
2021/12/23 12:18:59;;;;;;;39.78;20.65;;;;;;;2.17;82.75;100875.81;5051766;28;20111;-90
2021/12/23 12:21:30;;;;;;;34.28;18.80;;;;;;;2.24;82.78;100870.69;5019004;28;20222;-91
2021/12/23 12:24:12;;;;;;;30.20;15.55;;;;;;;2.34;82.75;100854.25;5051755;28;20495;-90
2021/12/23 12:26:58;;;;;;;34.13;20.33;;;;;;;2.44;82.30;100857.88;5051724;28;20033;-91